sensor_id;sensor_type;location;lat;lon;timestamp;P1;durP1;ratioP1;P2;durP2;ratioP2
50161;SDS011;36061;48.116;11.612;2022-11-02T00:00:27;5.07;;;2.97;;
50161;SDS011;36061;48.116;11.612;2022-11-02T00:02:54;4.40;;;2.53;;
50161;SDS011;36061;48.116;11.612;2022-11-02T00:05:20;4.10;;;2.20;;
50161;SDS011;36061;48.116;11.612;2022-11-02T00:07:49;4.20;;;2.30;;
50161;SDS011;36061;48.116;11.612;2022-11-02T00:10:16;6.13;;;2.90;;
50161;SDS011;36061;48.116;11.612;2022-11-02T00:12:43;4.50;;;2.60;;
50161;SDS011;36061;48.116;11.612;2022-11-02T00:15:09;4.17;;;2.70;;
50161;SDS011;36061;48.116;11.612;2022-11-02T00:17:35;5.47;;;2.97;;
50161;SDS011;36061;48.116;11.612;2022-11-02T00:20:02;3.90;;;2.57;;
50161;SDS011;36061;48.116;11.612;2022-11-02T00:22:29;5.50;;;2.83;;
50161;SDS011;36061;48.116;11.612;2022-11-02T00:24:57;5.63;;;3.20;;
50161;SDS011;36061;48.116;11.612;2022-11-02T00:27:25;6.13;;;2.80;;
50161;SDS011;36061;48.116;11.612;2022-11-02T00:29:51;5.43;;;3.30;;
50161;SDS011;36061;48.116;11.612;2022-11-02T00:32:17;6.63;;;2.80;;
50161;SDS011;36061;48.116;11.612;2022-11-02T00:34:43;6.13;;;2.87;;
50161;SDS011;36061;48.116;11.612;2022-11-02T00:37:09;4.00;;;2.63;;
50161;SDS011;36061;48.116;11.612;2022-11-02T00:39:35;6.80;;;2.37;;
50161;SDS011;36061;48.116;11.612;2022-11-02T00:42:00;6.57;;;2.43;;
50161;SDS011;36061;48.116;11.612;2022-11-02T00:44:26;6.93;;;2.60;;
50161;SDS011;36061;48.116;11.612;2022-11-02T00:46:52;5.27;;;2.73;;
50161;SDS011;36061;48.116;11.612;2022-11-02T00:49:17;5.30;;;2.50;;
50161;SDS011;36061;48.116;11.612;2022-11-02T00:51:43;6.43;;;2.90;;
50161;SDS011;36061;48.116;11.612;2022-11-02T00:54:12;5.37;;;2.40;;
50161;SDS011;36061;48.116;11.612;2022-11-02T00:56:37;5.23;;;2.47;;
50161;SDS011;36061;48.116;11.612;2022-11-02T00:59:03;2.77;;;2.37;;
50161;SDS011;36061;48.116;11.612;2022-11-02T01:01:30;5.27;;;2.40;;
50161;SDS011;36061;48.116;11.612;2022-11-02T01:03:56;6.30;;;2.10;;
50161;SDS011;36061;48.116;11.612;2022-11-02T01:06:22;6.63;;;2.40;;
50161;SDS011;36061;48.116;11.612;2022-11-02T01:08:47;4.90;;;2.53;;
50161;SDS011;36061;48.116;11.612;2022-11-02T01:11:14;6.77;;;2.70;;
50161;SDS011;36061;48.116;11.612;2022-11-02T01:13:42;5.20;;;2.40;;
50161;SDS011;36061;48.116;11.612;2022-11-02T01:16:09;5.80;;;2.10;;
50161;SDS011;36061;48.116;11.612;2022-11-02T01:18:36;5.00;;;2.60;;
50161;SDS011;36061;48.116;11.612;2022-11-02T01:21:02;3.43;;;2.50;;
50161;SDS011;36061;48.116;11.612;2022-11-02T01:23:30;3.67;;;2.00;;
50161;SDS011;36061;48.116;11.612;2022-11-02T01:26:07;4.43;;;2.30;;
50161;SDS011;36061;48.116;11.612;2022-11-02T01:28:34;5.90;;;2.60;;
50161;SDS011;36061;48.116;11.612;2022-11-02T01:31:00;7.37;;;2.83;;
50161;SDS011;36061;48.116;11.612;2022-11-02T01:33:27;4.53;;;2.47;;
50161;SDS011;36061;48.116;11.612;2022-11-02T01:35:54;6.00;;;2.43;;
50161;SDS011;36061;48.116;11.612;2022-11-02T01:38:21;3.20;;;2.20;;
50161;SDS011;36061;48.116;11.612;2022-11-02T01:40:47;2.77;;;2.27;;
50161;SDS011;36061;48.116;11.612;2022-11-02T01:45:45;4.27;;;2.07;;
50161;SDS011;36061;48.116;11.612;2022-11-02T01:48:11;4.00;;;2.30;;
50161;SDS011;36061;48.116;11.612;2022-11-02T01:50:37;4.30;;;2.10;;
50161;SDS011;36061;48.116;11.612;2022-11-02T01:53:03;4.77;;;1.90;;
50161;SDS011;36061;48.116;11.612;2022-11-02T01:55:30;4.03;;;2.10;;
50161;SDS011;36061;48.116;11.612;2022-11-02T01:57:59;3.10;;;2.13;;
50161;SDS011;36061;48.116;11.612;2022-11-02T02:00:28;3.30;;;2.20;;
50161;SDS011;36061;48.116;11.612;2022-11-02T02:02:55;8.80;;;2.43;;
50161;SDS011;36061;48.116;11.612;2022-11-02T02:05:31;2.67;;;1.73;;
50161;SDS011;36061;48.116;11.612;2022-11-02T02:08:00;3.67;;;2.07;;
50161;SDS011;36061;48.116;11.612;2022-11-02T02:10:29;3.13;;;2.00;;
50161;SDS011;36061;48.116;11.612;2022-11-02T02:12:54;3.50;;;1.83;;
50161;SDS011;36061;48.116;11.612;2022-11-02T02:15:21;3.20;;;2.20;;
50161;SDS011;36061;48.116;11.612;2022-11-02T02:18:06;8.10;;;2.23;;
50161;SDS011;36061;48.116;11.612;2022-11-02T02:21:16;4.37;;;2.53;;
50161;SDS011;36061;48.116;11.612;2022-11-02T02:37:56;5.37;;;2.40;;
50161;SDS011;36061;48.116;11.612;2022-11-02T02:40:35;4.23;;;2.93;;
50161;SDS011;36061;48.116;11.612;2022-11-02T02:43:31;3.37;;;2.03;;
50161;SDS011;36061;48.116;11.612;2022-11-02T02:46:05;3.67;;;2.33;;
50161;SDS011;36061;48.116;11.612;2022-11-02T02:48:37;5.70;;;1.87;;
50161;SDS011;36061;48.116;11.612;2022-11-02T02:51:06;5.57;;;2.63;;
50161;SDS011;36061;48.116;11.612;2022-11-02T02:53:37;5.60;;;1.97;;
50161;SDS011;36061;48.116;11.612;2022-11-02T02:56:08;4.77;;;2.20;;
50161;SDS011;36061;48.116;11.612;2022-11-02T02:58:41;4.13;;;2.33;;
50161;SDS011;36061;48.116;11.612;2022-11-02T03:01:22;7.57;;;2.40;;
50161;SDS011;36061;48.116;11.612;2022-11-02T03:03:50;5.97;;;2.60;;
50161;SDS011;36061;48.116;11.612;2022-11-02T03:06:27;5.83;;;2.60;;
50161;SDS011;36061;48.116;11.612;2022-11-02T03:11:29;2.67;;;2.00;;
50161;SDS011;36061;48.116;11.612;2022-11-02T03:19:22;3.50;;;2.13;;
50161;SDS011;36061;48.116;11.612;2022-11-02T03:22:08;5.27;;;2.70;;
50161;SDS011;36061;48.116;11.612;2022-11-02T03:24:46;2.73;;;2.13;;
50161;SDS011;36061;48.116;11.612;2022-11-02T03:27:18;3.40;;;2.30;;
50161;SDS011;36061;48.116;11.612;2022-11-02T03:29:58;4.17;;;1.83;;
50161;SDS011;36061;48.116;11.612;2022-11-02T03:32:35;3.77;;;2.10;;
50161;SDS011;36061;48.116;11.612;2022-11-02T03:35:47;3.47;;;1.70;;
50161;SDS011;36061;48.116;11.612;2022-11-02T03:38:23;4.00;;;2.20;;
50161;SDS011;36061;48.116;11.612;2022-11-02T03:40:57;5.50;;;2.13;;
50161;SDS011;36061;48.116;11.612;2022-11-02T03:43:26;6.30;;;1.87;;
50161;SDS011;36061;48.116;11.612;2022-11-02T03:45:54;6.17;;;2.30;;
50161;SDS011;36061;48.116;11.612;2022-11-02T03:48:25;4.90;;;2.13;;
50161;SDS011;36061;48.116;11.612;2022-11-02T03:50:58;4.67;;;2.27;;
50161;SDS011;36061;48.116;11.612;2022-11-02T03:53:30;4.60;;;2.17;;
50161;SDS011;36061;48.116;11.612;2022-11-02T03:56:08;4.40;;;1.87;;
50161;SDS011;36061;48.116;11.612;2022-11-02T03:58:38;3.17;;;2.20;;
50161;SDS011;36061;48.116;11.612;2022-11-02T04:01:05;3.87;;;1.97;;
50161;SDS011;36061;48.116;11.612;2022-11-02T04:03:38;4.27;;;2.17;;
50161;SDS011;36061;48.116;11.612;2022-11-02T04:06:07;3.23;;;1.80;;
50161;SDS011;36061;48.116;11.612;2022-11-02T04:08:38;6.57;;;2.20;;
50161;SDS011;36061;48.116;11.612;2022-11-02T04:11:09;4.37;;;1.60;;
50161;SDS011;36061;48.116;11.612;2022-11-02T04:13:59;4.07;;;2.00;;
50161;SDS011;36061;48.116;11.612;2022-11-02T04:16:44;4.90;;;2.07;;
50161;SDS011;36061;48.116;11.612;2022-11-02T04:19:16;4.67;;;2.30;;
50161;SDS011;36061;48.116;11.612;2022-11-02T04:21:52;5.43;;;2.50;;
50161;SDS011;36061;48.116;11.612;2022-11-02T04:24:38;2.43;;;1.83;;
50161;SDS011;36061;48.116;11.612;2022-11-02T04:27:24;4.37;;;2.50;;
50161;SDS011;36061;48.116;11.612;2022-11-02T04:29:51;6.37;;;2.87;;
50161;SDS011;36061;48.116;11.612;2022-11-02T04:32:17;5.30;;;2.30;;
50161;SDS011;36061;48.116;11.612;2022-11-02T04:35:06;5.30;;;2.63;;
50161;SDS011;36061;48.116;11.612;2022-11-02T04:37:42;5.80;;;2.50;;
50161;SDS011;36061;48.116;11.612;2022-11-02T04:40:31;4.20;;;2.50;;
50161;SDS011;36061;48.116;11.612;2022-11-02T04:42:57;4.43;;;2.30;;
50161;SDS011;36061;48.116;11.612;2022-11-02T04:45:23;4.50;;;2.13;;
50161;SDS011;36061;48.116;11.612;2022-11-02T04:47:48;5.97;;;2.43;;
50161;SDS011;36061;48.116;11.612;2022-11-02T04:50:14;4.80;;;2.67;;
50161;SDS011;36061;48.116;11.612;2022-11-02T04:52:42;4.07;;;2.30;;
50161;SDS011;36061;48.116;11.612;2022-11-02T04:55:08;5.07;;;2.53;;
50161;SDS011;36061;48.116;11.612;2022-11-02T04:57:34;5.03;;;2.60;;
50161;SDS011;36061;48.116;11.612;2022-11-02T05:00:00;6.50;;;2.30;;
50161;SDS011;36061;48.116;11.612;2022-11-02T05:02:28;5.57;;;2.30;;
50161;SDS011;36061;48.116;11.612;2022-11-02T05:04:54;4.03;;;2.43;;
50161;SDS011;36061;48.116;11.612;2022-11-02T05:07:20;3.87;;;2.43;;
50161;SDS011;36061;48.116;11.612;2022-11-02T05:09:46;3.43;;;2.57;;
50161;SDS011;36061;48.116;11.612;2022-11-02T05:12:13;5.10;;;3.17;;
50161;SDS011;36061;48.116;11.612;2022-11-02T05:14:39;10.83;;;2.60;;
50161;SDS011;36061;48.116;11.612;2022-11-02T05:17:05;7.33;;;2.40;;
50161;SDS011;36061;48.116;11.612;2022-11-02T05:19:33;9.53;;;2.50;;
50161;SDS011;36061;48.116;11.612;2022-11-02T05:22:00;3.40;;;2.30;;
50161;SDS011;36061;48.116;11.612;2022-11-02T05:24:27;2.90;;;2.60;;
50161;SDS011;36061;48.116;11.612;2022-11-02T05:26:53;6.40;;;2.87;;
50161;SDS011;36061;48.116;11.612;2022-11-02T05:29:21;6.93;;;2.50;;
50161;SDS011;36061;48.116;11.612;2022-11-02T05:31:48;8.07;;;3.20;;
50161;SDS011;36061;48.116;11.612;2022-11-02T05:34:13;6.90;;;2.87;;
50161;SDS011;36061;48.116;11.612;2022-11-02T05:36:39;6.43;;;2.40;;
50161;SDS011;36061;48.116;11.612;2022-11-02T05:39:05;5.67;;;2.30;;
50161;SDS011;36061;48.116;11.612;2022-11-02T05:41:31;5.13;;;2.43;;
50161;SDS011;36061;48.116;11.612;2022-11-02T05:43:58;4.37;;;2.43;;
50161;SDS011;36061;48.116;11.612;2022-11-02T05:46:26;4.33;;;2.37;;
50161;SDS011;36061;48.116;11.612;2022-11-02T05:48:52;4.27;;;2.30;;
50161;SDS011;36061;48.116;11.612;2022-11-02T05:51:17;7.70;;;4.83;;
50161;SDS011;36061;48.116;11.612;2022-11-02T05:53:43;4.03;;;2.37;;
50161;SDS011;36061;48.116;11.612;2022-11-02T05:56:09;6.33;;;2.83;;
50161;SDS011;36061;48.116;11.612;2022-11-02T05:58:36;4.10;;;2.57;;
50161;SDS011;36061;48.116;11.612;2022-11-02T06:01:02;6.77;;;2.90;;
50161;SDS011;36061;48.116;11.612;2022-11-02T06:03:30;3.37;;;2.17;;
50161;SDS011;36061;48.116;11.612;2022-11-02T06:05:57;6.53;;;2.53;;
50161;SDS011;36061;48.116;11.612;2022-11-02T06:08:23;6.13;;;2.37;;
50161;SDS011;36061;48.116;11.612;2022-11-02T06:10:49;5.13;;;2.40;;
50161;SDS011;36061;48.116;11.612;2022-11-02T06:13:15;4.97;;;2.50;;
50161;SDS011;36061;48.116;11.612;2022-11-02T06:15:41;5.73;;;3.10;;
50161;SDS011;36061;48.116;11.612;2022-11-02T06:18:07;5.07;;;2.87;;
50161;SDS011;36061;48.116;11.612;2022-11-02T06:20:33;6.17;;;2.70;;
50161;SDS011;36061;48.116;11.612;2022-11-02T06:22:59;5.47;;;2.63;;
50161;SDS011;36061;48.116;11.612;2022-11-02T06:25:24;6.33;;;3.10;;
50161;SDS011;36061;48.116;11.612;2022-11-02T06:27:54;5.80;;;2.57;;
50161;SDS011;36061;48.116;11.612;2022-11-02T06:30:23;5.37;;;3.07;;
50161;SDS011;36061;48.116;11.612;2022-11-02T06:32:50;5.43;;;3.00;;
50161;SDS011;36061;48.116;11.612;2022-11-02T06:35:18;6.70;;;2.63;;
50161;SDS011;36061;48.116;11.612;2022-11-02T06:37:45;3.70;;;2.20;;
50161;SDS011;36061;48.116;11.612;2022-11-02T06:40:12;4.17;;;2.83;;
50161;SDS011;36061;48.116;11.612;2022-11-02T06:42:38;4.97;;;2.57;;
50161;SDS011;36061;48.116;11.612;2022-11-02T06:45:05;6.90;;;2.47;;
50161;SDS011;36061;48.116;11.612;2022-11-02T06:47:32;4.37;;;2.40;;
50161;SDS011;36061;48.116;11.612;2022-11-02T06:49:59;6.43;;;3.23;;
50161;SDS011;36061;48.116;11.612;2022-11-02T06:52:26;6.77;;;2.80;;
50161;SDS011;36061;48.116;11.612;2022-11-02T06:54:53;5.00;;;2.83;;
50161;SDS011;36061;48.116;11.612;2022-11-02T06:57:19;6.47;;;2.83;;
50161;SDS011;36061;48.116;11.612;2022-11-02T06:59:45;4.47;;;2.63;;
50161;SDS011;36061;48.116;11.612;2022-11-02T07:02:11;4.80;;;2.17;;
50161;SDS011;36061;48.116;11.612;2022-11-02T07:04:37;7.77;;;2.50;;
50161;SDS011;36061;48.116;11.612;2022-11-02T07:07:02;7.60;;;2.80;;
50161;SDS011;36061;48.116;11.612;2022-11-02T07:09:28;7.13;;;2.63;;
50161;SDS011;36061;48.116;11.612;2022-11-02T07:11:54;4.07;;;2.43;;
50161;SDS011;36061;48.116;11.612;2022-11-02T07:14:20;4.10;;;2.37;;
50161;SDS011;36061;48.116;11.612;2022-11-02T07:16:45;7.53;;;2.67;;
50161;SDS011;36061;48.116;11.612;2022-11-02T07:19:11;7.23;;;2.77;;
50161;SDS011;36061;48.116;11.612;2022-11-02T07:21:37;6.70;;;2.77;;
50161;SDS011;36061;48.116;11.612;2022-11-02T07:24:03;6.07;;;2.70;;
50161;SDS011;36061;48.116;11.612;2022-11-02T07:26:29;4.17;;;2.67;;
50161;SDS011;36061;48.116;11.612;2022-11-02T07:28:54;7.47;;;2.43;;
50161;SDS011;36061;48.116;11.612;2022-11-02T07:31:27;4.60;;;2.80;;
50161;SDS011;36061;48.116;11.612;2022-11-02T07:33:53;5.40;;;2.40;;
50161;SDS011;36061;48.116;11.612;2022-11-02T07:36:19;3.03;;;1.80;;
50161;SDS011;36061;48.116;11.612;2022-11-02T07:38:44;4.70;;;2.53;;
50161;SDS011;36061;48.116;11.612;2022-11-02T07:41:10;5.37;;;2.53;;
50161;SDS011;36061;48.116;11.612;2022-11-02T07:43:36;3.03;;;2.27;;
50161;SDS011;36061;48.116;11.612;2022-11-02T07:46:13;5.93;;;2.43;;
50161;SDS011;36061;48.116;11.612;2022-11-02T07:48:39;5.53;;;2.43;;
50161;SDS011;36061;48.116;11.612;2022-11-02T07:51:04;8.07;;;2.40;;
50161;SDS011;36061;48.116;11.612;2022-11-02T07:53:32;6.27;;;2.77;;
50161;SDS011;36061;48.116;11.612;2022-11-02T07:55:58;4.83;;;2.47;;
50161;SDS011;36061;48.116;11.612;2022-11-02T07:58:25;5.37;;;2.67;;
50161;SDS011;36061;48.116;11.612;2022-11-02T08:00:51;3.90;;;2.53;;
50161;SDS011;36061;48.116;11.612;2022-11-02T08:03:18;4.40;;;2.37;;
50161;SDS011;36061;48.116;11.612;2022-11-02T08:05:44;5.67;;;2.27;;
50161;SDS011;36061;48.116;11.612;2022-11-02T08:08:11;5.87;;;2.40;;
50161;SDS011;36061;48.116;11.612;2022-11-02T08:10:39;5.83;;;2.57;;
50161;SDS011;36061;48.116;11.612;2022-11-02T08:13:05;2.57;;;1.90;;
50161;SDS011;36061;48.116;11.612;2022-11-02T08:15:35;5.80;;;2.37;;
50161;SDS011;36061;48.116;11.612;2022-11-02T08:18:02;6.13;;;2.53;;
50161;SDS011;36061;48.116;11.612;2022-11-02T08:20:29;4.10;;;2.10;;
50161;SDS011;36061;48.116;11.612;2022-11-02T08:22:55;4.37;;;2.27;;
50161;SDS011;36061;48.116;11.612;2022-11-02T08:25:21;9.93;;;2.00;;
50161;SDS011;36061;48.116;11.612;2022-11-02T08:27:47;3.93;;;1.90;;
50161;SDS011;36061;48.116;11.612;2022-11-02T08:30:13;5.00;;;2.50;;
50161;SDS011;36061;48.116;11.612;2022-11-02T08:32:39;4.73;;;2.30;;
50161;SDS011;36061;48.116;11.612;2022-11-02T08:35:05;4.43;;;1.77;;
50161;SDS011;36061;48.116;11.612;2022-11-02T08:37:31;4.13;;;1.57;;
50161;SDS011;36061;48.116;11.612;2022-11-02T08:39:56;6.93;;;2.57;;
50161;SDS011;36061;48.116;11.612;2022-11-02T08:42:22;4.03;;;1.70;;
50161;SDS011;36061;48.116;11.612;2022-11-02T08:44:48;5.37;;;2.07;;
50161;SDS011;36061;48.116;11.612;2022-11-02T08:47:14;4.70;;;1.57;;
50161;SDS011;36061;48.116;11.612;2022-11-02T08:49:41;3.27;;;2.07;;
50161;SDS011;36061;48.116;11.612;2022-11-02T08:52:07;3.03;;;1.53;;
50161;SDS011;36061;48.116;11.612;2022-11-02T08:54:33;4.00;;;1.73;;
50161;SDS011;36061;48.116;11.612;2022-11-02T08:56:59;2.93;;;1.37;;
50161;SDS011;36061;48.116;11.612;2022-11-02T08:59:24;3.47;;;1.50;;
50161;SDS011;36061;48.116;11.612;2022-11-02T09:01:50;2.60;;;1.13;;
50161;SDS011;36061;48.116;11.612;2022-11-02T09:04:16;2.17;;;1.40;;
50161;SDS011;36061;48.116;11.612;2022-11-02T09:06:42;2.57;;;1.33;;
50161;SDS011;36061;48.116;11.612;2022-11-02T09:09:08;4.20;;;1.70;;
50161;SDS011;36061;48.116;11.612;2022-11-02T09:11:34;3.30;;;1.57;;
50161;SDS011;36061;48.116;11.612;2022-11-02T09:14:00;6.33;;;1.50;;
50161;SDS011;36061;48.116;11.612;2022-11-02T09:16:26;5.23;;;1.53;;
50161;SDS011;36061;48.116;11.612;2022-11-02T09:18:52;4.80;;;2.70;;
50161;SDS011;36061;48.116;11.612;2022-11-02T09:21:18;5.30;;;1.60;;
50161;SDS011;36061;48.116;11.612;2022-11-02T09:23:43;4.00;;;1.40;;
50161;SDS011;36061;48.116;11.612;2022-11-02T09:26:12;3.37;;;1.37;;
50161;SDS011;36061;48.116;11.612;2022-11-02T09:28:39;3.87;;;1.50;;
50161;SDS011;36061;48.116;11.612;2022-11-02T09:31:04;2.60;;;1.13;;
50161;SDS011;36061;48.116;11.612;2022-11-02T09:33:30;3.67;;;1.27;;
50161;SDS011;36061;48.116;11.612;2022-11-02T09:36:00;6.50;;;1.70;;
50161;SDS011;36061;48.116;11.612;2022-11-02T09:38:28;3.13;;;1.23;;
50161;SDS011;36061;48.116;11.612;2022-11-02T09:49:09;4.67;;;1.07;;
50161;SDS011;36061;48.116;11.612;2022-11-02T09:51:09;4.03;;;1.30;;
50161;SDS011;36061;48.116;11.612;2022-11-02T09:53:55;5.00;;;1.30;;
50161;SDS011;36061;48.116;11.612;2022-11-02T09:56:28;2.83;;;0.90;;
50161;SDS011;36061;48.116;11.612;2022-11-02T09:59:03;4.43;;;1.13;;
50161;SDS011;36061;48.116;11.612;2022-11-02T10:01:44;3.43;;;1.30;;
50161;SDS011;36061;48.116;11.612;2022-11-02T10:15:34;4.63;;;1.37;;
50161;SDS011;36061;48.116;11.612;2022-11-02T10:18:18;2.37;;;1.20;;
50161;SDS011;36061;48.116;11.612;2022-11-02T10:23:50;8.87;;;1.33;;
50161;SDS011;36061;48.116;11.612;2022-11-02T10:26:22;2.57;;;1.30;;
50161;SDS011;36061;48.116;11.612;2022-11-02T10:28:49;3.20;;;1.03;;
50161;SDS011;36061;48.116;11.612;2022-11-02T10:31:24;4.40;;;1.40;;
50161;SDS011;36061;48.116;11.612;2022-11-02T10:33:54;3.47;;;1.50;;
50161;SDS011;36061;48.116;11.612;2022-11-02T10:36:32;6.43;;;1.33;;
50161;SDS011;36061;48.116;11.612;2022-11-02T10:42:41;2.73;;;1.17;;
50161;SDS011;36061;48.116;11.612;2022-11-02T10:51:28;8.70;;;1.30;;
50161;SDS011;36061;48.116;11.612;2022-11-02T10:53:54;2.13;;;1.13;;
50161;SDS011;36061;48.116;11.612;2022-11-02T10:56:39;3.97;;;1.23;;
50161;SDS011;36061;48.116;11.612;2022-11-02T10:59:14;3.77;;;1.00;;
50161;SDS011;36061;48.116;11.612;2022-11-02T11:04:26;5.17;;;1.17;;
50161;SDS011;36061;48.116;11.612;2022-11-02T11:06:54;4.20;;;1.17;;
50161;SDS011;36061;48.116;11.612;2022-11-02T11:12:00;7.03;;;1.30;;
50161;SDS011;36061;48.116;11.612;2022-11-02T11:14:31;6.47;;;1.23;;
50161;SDS011;36061;48.116;11.612;2022-11-02T11:17:17;3.77;;;0.97;;
50161;SDS011;36061;48.116;11.612;2022-11-02T11:19:49;2.90;;;1.23;;
50161;SDS011;36061;48.116;11.612;2022-11-02T11:22:29;4.03;;;0.97;;
50161;SDS011;36061;48.116;11.612;2022-11-02T11:27:49;4.20;;;0.87;;
50161;SDS011;36061;48.116;11.612;2022-11-02T11:32:55;4.43;;;1.20;;
50161;SDS011;36061;48.116;11.612;2022-11-02T11:35:22;3.20;;;1.20;;
50161;SDS011;36061;48.116;11.612;2022-11-02T11:37:53;5.37;;;1.40;;
50161;SDS011;36061;48.116;11.612;2022-11-02T11:40:42;10.20;;;1.50;;
50161;SDS011;36061;48.116;11.612;2022-11-02T11:43:14;3.37;;;0.90;;
50161;SDS011;36061;48.116;11.612;2022-11-02T11:45:58;3.93;;;1.30;;
50161;SDS011;36061;48.116;11.612;2022-11-02T11:48:38;11.20;;;1.60;;
50161;SDS011;36061;48.116;11.612;2022-11-02T11:51:55;8.50;;;1.33;;
50161;SDS011;36061;48.116;11.612;2022-11-02T11:54:23;4.77;;;1.23;;
50161;SDS011;36061;48.116;11.612;2022-11-02T11:56:56;5.03;;;0.90;;
50161;SDS011;36061;48.116;11.612;2022-11-02T12:02:24;2.90;;;1.10;;
50161;SDS011;36061;48.116;11.612;2022-11-02T12:10:51;3.70;;;1.17;;
50161;SDS011;36061;48.116;11.612;2022-11-02T12:16:14;3.03;;;0.90;;
50161;SDS011;36061;48.116;11.612;2022-11-02T12:19:35;1.27;;;0.90;;
50161;SDS011;36061;48.116;11.612;2022-11-02T12:24:54;2.10;;;1.00;;
50161;SDS011;36061;48.116;11.612;2022-11-02T12:30:28;2.40;;;1.20;;
50161;SDS011;36061;48.116;11.612;2022-11-02T12:36:01;1.23;;;0.90;;
50161;SDS011;36061;48.116;11.612;2022-11-02T12:38:42;6.77;;;1.00;;
50161;SDS011;36061;48.116;11.612;2022-11-02T12:49:53;5.20;;;1.20;;
50161;SDS011;36061;48.116;11.612;2022-11-02T12:54:58;5.40;;;1.20;;
50161;SDS011;36061;48.116;11.612;2022-11-02T12:57:28;4.13;;;1.00;;
50161;SDS011;36061;48.116;11.612;2022-11-02T12:59:59;3.97;;;1.60;;
50161;SDS011;36061;48.116;11.612;2022-11-02T13:07:47;5.70;;;1.30;;
50161;SDS011;36061;48.116;11.612;2022-11-02T13:10:29;3.80;;;1.20;;
50161;SDS011;36061;48.116;11.612;2022-11-02T13:13:00;3.97;;;1.10;;
50161;SDS011;36061;48.116;11.612;2022-11-02T13:15:28;2.70;;;1.00;;
50161;SDS011;36061;48.116;11.612;2022-11-02T13:17:59;2.53;;;0.97;;
50161;SDS011;36061;48.116;11.612;2022-11-02T13:25:59;2.47;;;1.30;;
50161;SDS011;36061;48.116;11.612;2022-11-02T13:28:42;4.67;;;1.20;;
50161;SDS011;36061;48.116;11.612;2022-11-02T13:31:33;3.23;;;0.90;;
50161;SDS011;36061;48.116;11.612;2022-11-02T13:34:01;3.53;;;0.97;;
50161;SDS011;36061;48.116;11.612;2022-11-02T13:36:34;2.40;;;0.90;;
50161;SDS011;36061;48.116;11.612;2022-11-02T13:39:06;1.07;;;0.77;;
50161;SDS011;36061;48.116;11.612;2022-11-02T13:50:55;2.67;;;1.00;;
50161;SDS011;36061;48.116;11.612;2022-11-02T13:53:28;2.53;;;0.83;;
50161;SDS011;36061;48.116;11.612;2022-11-02T13:55:58;1.77;;;0.80;;
50161;SDS011;36061;48.116;11.612;2022-11-02T13:58:32;2.70;;;1.10;;
50161;SDS011;36061;48.116;11.612;2022-11-02T14:01:01;2.47;;;1.00;;
50161;SDS011;36061;48.116;11.612;2022-11-02T14:06:17;1.50;;;0.80;;
50161;SDS011;36061;48.116;11.612;2022-11-02T14:08:49;6.17;;;1.43;;
50161;SDS011;36061;48.116;11.612;2022-11-02T14:19:48;2.13;;;0.80;;
50161;SDS011;36061;48.116;11.612;2022-11-02T14:22:16;2.23;;;0.90;;
50161;SDS011;36061;48.116;11.612;2022-11-02T14:32:51;2.87;;;0.80;;
50161;SDS011;36061;48.116;11.612;2022-11-02T14:49:14;4.10;;;1.17;;
50161;SDS011;36061;48.116;11.612;2022-11-02T14:51:53;7.10;;;1.43;;
50161;SDS011;36061;48.116;11.612;2022-11-02T14:54:27;2.57;;;1.20;;
50161;SDS011;36061;48.116;11.612;2022-11-02T14:57:02;8.00;;;2.33;;
50161;SDS011;36061;48.116;11.612;2022-11-02T14:59:48;1.83;;;0.90;;
50161;SDS011;36061;48.116;11.612;2022-11-02T15:02:19;4.73;;;1.70;;
50161;SDS011;36061;48.116;11.612;2022-11-02T15:04:56;7.50;;;1.30;;
50161;SDS011;36061;48.116;11.612;2022-11-02T15:07:35;4.77;;;1.53;;
50161;SDS011;36061;48.116;11.612;2022-11-02T15:12:43;6.83;;;1.30;;
50161;SDS011;36061;48.116;11.612;2022-11-02T15:18:12;1.97;;;1.00;;
50161;SDS011;36061;48.116;11.612;2022-11-02T15:23:45;4.03;;;1.30;;
50161;SDS011;36061;48.116;11.612;2022-11-02T15:26:13;5.70;;;1.57;;
50161;SDS011;36061;48.116;11.612;2022-11-02T15:28:44;5.73;;;1.60;;
50161;SDS011;36061;48.116;11.612;2022-11-02T15:31:15;4.73;;;1.43;;
50161;SDS011;36061;48.116;11.612;2022-11-02T15:33:47;5.20;;;1.93;;
50161;SDS011;36061;48.116;11.612;2022-11-02T15:38:45;7.53;;;1.80;;
50161;SDS011;36061;48.116;11.612;2022-11-02T15:41:25;4.20;;;1.23;;
50161;SDS011;36061;48.116;11.612;2022-11-02T15:44:16;1.80;;;1.00;;
50161;SDS011;36061;48.116;11.612;2022-11-02T16:01:20;5.33;;;2.10;;
50161;SDS011;36061;48.116;11.612;2022-11-02T16:03:48;6.27;;;2.03;;
50161;SDS011;36061;48.116;11.612;2022-11-02T16:06:26;10.43;;;2.23;;
50161;SDS011;36061;48.116;11.612;2022-11-02T16:17:35;3.73;;;2.20;;
50161;SDS011;36061;48.116;11.612;2022-11-02T16:20:08;5.73;;;2.10;;
50161;SDS011;36061;48.116;11.612;2022-11-02T16:22:46;10.70;;;2.10;;
50161;SDS011;36061;48.116;11.612;2022-11-02T16:25:15;9.17;;;2.80;;
50161;SDS011;36061;48.116;11.612;2022-11-02T16:27:51;6.40;;;2.73;;
50161;SDS011;36061;48.116;11.612;2022-11-02T16:30:18;9.10;;;2.87;;
50161;SDS011;36061;48.116;11.612;2022-11-02T16:32:45;9.23;;;2.63;;
50161;SDS011;36061;48.116;11.612;2022-11-02T16:35:13;6.80;;;2.80;;
50161;SDS011;36061;48.116;11.612;2022-11-02T16:37:41;10.53;;;3.07;;
50161;SDS011;36061;48.116;11.612;2022-11-02T16:40:14;8.27;;;3.13;;
50161;SDS011;36061;48.116;11.612;2022-11-02T16:42:43;6.33;;;3.57;;
50161;SDS011;36061;48.116;11.612;2022-11-02T16:45:22;12.40;;;4.07;;
50161;SDS011;36061;48.116;11.612;2022-11-02T16:48:00;8.73;;;4.30;;
50161;SDS011;36061;48.116;11.612;2022-11-02T16:50:28;10.93;;;4.03;;
50161;SDS011;36061;48.116;11.612;2022-11-02T16:52:56;13.27;;;5.30;;
50161;SDS011;36061;48.116;11.612;2022-11-02T16:55:36;14.30;;;4.90;;
50161;SDS011;36061;48.116;11.612;2022-11-02T16:58:07;8.90;;;4.23;;
50161;SDS011;36061;48.116;11.612;2022-11-02T17:00:38;16.43;;;4.00;;
50161;SDS011;36061;48.116;11.612;2022-11-02T17:03:16;5.73;;;2.97;;
50161;SDS011;36061;48.116;11.612;2022-11-02T17:05:42;7.60;;;3.40;;
50161;SDS011;36061;48.116;11.612;2022-11-02T17:08:26;8.60;;;3.73;;
50161;SDS011;36061;48.116;11.612;2022-11-02T17:10:58;7.10;;;3.23;;
50161;SDS011;36061;48.116;11.612;2022-11-02T17:13:27;8.53;;;3.43;;
50161;SDS011;36061;48.116;11.612;2022-11-02T17:16:00;6.37;;;2.87;;
50161;SDS011;36061;48.116;11.612;2022-11-02T17:18:29;7.23;;;3.13;;
50161;SDS011;36061;48.116;11.612;2022-11-02T17:23:47;14.10;;;4.50;;
50161;SDS011;36061;48.116;11.612;2022-11-02T17:28:52;5.87;;;3.43;;
50161;SDS011;36061;48.116;11.612;2022-11-02T17:31:31;8.27;;;3.53;;
50161;SDS011;36061;48.116;11.612;2022-11-02T17:34:00;10.77;;;4.33;;
50161;SDS011;36061;48.116;11.612;2022-11-02T17:36:34;7.03;;;4.10;;
50161;SDS011;36061;48.116;11.612;2022-11-02T17:39:08;10.57;;;3.87;;
50161;SDS011;36061;48.116;11.612;2022-11-02T17:41:42;9.13;;;4.13;;
50161;SDS011;36061;48.116;11.612;2022-11-02T17:44:27;7.23;;;4.43;;
50161;SDS011;36061;48.116;11.612;2022-11-02T17:46:53;7.07;;;4.17;;
50161;SDS011;36061;48.116;11.612;2022-11-02T17:49:19;10.87;;;3.83;;
50161;SDS011;36061;48.116;11.612;2022-11-02T17:51:45;7.07;;;4.20;;
50161;SDS011;36061;48.116;11.612;2022-11-02T17:54:12;6.10;;;3.57;;
50161;SDS011;36061;48.116;11.612;2022-11-02T17:56:39;6.30;;;4.13;;
50161;SDS011;36061;48.116;11.612;2022-11-02T17:59:05;7.33;;;3.97;;
50161;SDS011;36061;48.116;11.612;2022-11-02T18:01:31;15.17;;;6.23;;
50161;SDS011;36061;48.116;11.612;2022-11-02T18:03:57;9.27;;;4.67;;